sensor_id;sensor_type;location;lat;lon;timestamp;temperature;humidity
2663;DHT22;49701;48.072;7.800;2024-01-11T00:00:31;-4.70;99.90
2663;DHT22;49701;48.072;7.800;2024-01-11T00:02:57;-4.70;99.90
2663;DHT22;49701;48.072;7.800;2024-01-11T00:05:22;-4.70;99.90
2663;DHT22;49701;48.072;7.800;2024-01-11T00:07:48;-4.70;99.90
2663;DHT22;49701;48.072;7.800;2024-01-11T00:10:14;-4.70;99.90
2663;DHT22;49701;48.072;7.800;2024-01-11T00:12:39;-4.80;99.90
2663;DHT22;49701;48.072;7.800;2024-01-11T00:15:05;-4.80;99.90
2663;DHT22;49701;48.072;7.800;2024-01-11T00:17:31;-4.80;99.90
2663;DHT22;49701;48.072;7.800;2024-01-11T00:19:56;-4.80;99.90
2663;DHT22;49701;48.072;7.800;2024-01-11T00:22:22;-4.80;99.90
2663;DHT22;49701;48.072;7.800;2024-01-11T00:24:47;-4.80;99.90
2663;DHT22;49701;48.072;7.800;2024-01-11T00:27:13;-4.80;99.90
2663;DHT22;49701;48.072;7.800;2024-01-11T00:29:38;-4.80;99.90
2663;DHT22;49701;48.072;7.800;2024-01-11T00:32:04;-4.80;99.90
2663;DHT22;49701;48.072;7.800;2024-01-11T00:34:30;-4.80;99.90
2663;DHT22;49701;48.072;7.800;2024-01-11T00:36:55;-4.80;99.90
2663;DHT22;49701;48.072;7.800;2024-01-11T00:39:21;-4.80;99.90
2663;DHT22;49701;48.072;7.800;2024-01-11T00:41:46;-4.80;99.90
2663;DHT22;49701;48.072;7.800;2024-01-11T00:44:12;-4.80;99.90
2663;DHT22;49701;48.072;7.800;2024-01-11T00:46:37;-4.80;99.90
2663;DHT22;49701;48.072;7.800;2024-01-11T00:49:03;-4.90;99.90
2663;DHT22;49701;48.072;7.800;2024-01-11T00:51:29;-4.90;99.90
2663;DHT22;49701;48.072;7.800;2024-01-11T00:53:54;-4.90;99.90
2663;DHT22;49701;48.072;7.800;2024-01-11T00:56:20;-4.90;99.90
2663;DHT22;49701;48.072;7.800;2024-01-11T00:58:46;-4.90;99.90
2663;DHT22;49701;48.072;7.800;2024-01-11T01:01:12;-4.90;99.90
2663;DHT22;49701;48.072;7.800;2024-01-11T01:03:38;-5.00;99.90
2663;DHT22;49701;48.072;7.800;2024-01-11T01:06:03;-4.90;99.90
2663;DHT22;49701;48.072;7.800;2024-01-11T01:08:29;-4.90;99.90
2663;DHT22;49701;48.072;7.800;2024-01-11T01:10:55;-4.90;99.90
2663;DHT22;49701;48.072;7.800;2024-01-11T01:13:20;-4.90;99.90
2663;DHT22;49701;48.072;7.800;2024-01-11T01:15:46;-5.00;99.90
2663;DHT22;49701;48.072;7.800;2024-01-11T01:18:11;-5.00;99.90
2663;DHT22;49701;48.072;7.800;2024-01-11T01:20:37;-5.00;99.90
2663;DHT22;49701;48.072;7.800;2024-01-11T01:23:03;-5.00;99.90
2663;DHT22;49701;48.072;7.800;2024-01-11T01:25:28;-5.00;99.90
2663;DHT22;49701;48.072;7.800;2024-01-11T01:27:54;-5.00;99.90
2663;DHT22;49701;48.072;7.800;2024-01-11T01:30:20;-5.00;99.90
2663;DHT22;49701;48.072;7.800;2024-01-11T01:32:46;-5.10;99.90
2663;DHT22;49701;48.072;7.800;2024-01-11T01:35:11;-5.10;99.90
2663;DHT22;49701;48.072;7.800;2024-01-11T01:37:37;-5.10;99.90
2663;DHT22;49701;48.072;7.800;2024-01-11T01:40:02;-5.10;99.90
2663;DHT22;49701;48.072;7.800;2024-01-11T01:42:28;-5.10;99.90
2663;DHT22;49701;48.072;7.800;2024-01-11T01:44:54;-5.10;99.90
2663;DHT22;49701;48.072;7.800;2024-01-11T01:47:19;-5.20;99.90
2663;DHT22;49701;48.072;7.800;2024-01-11T01:49:45;-5.20;99.90
2663;DHT22;49701;48.072;7.800;2024-01-11T01:52:12;-5.20;99.90
2663;DHT22;49701;48.072;7.800;2024-01-11T01:54:39;-5.20;99.90
2663;DHT22;49701;48.072;7.800;2024-01-11T01:57:05;-5.20;99.90
2663;DHT22;49701;48.072;7.800;2024-01-11T01:59:32;-5.20;99.90
2663;DHT22;49701;48.072;7.800;2024-01-11T02:01:58;-5.20;99.90
2663;DHT22;49701;48.072;7.800;2024-01-11T02:04:24;-5.20;99.90
2663;DHT22;49701;48.072;7.800;2024-01-11T02:06:50;-5.20;99.90
2663;DHT22;49701;48.072;7.800;2024-01-11T02:09:17;-5.20;99.90
2663;DHT22;49701;48.072;7.800;2024-01-11T02:11:42;-5.20;99.90
2663;DHT22;49701;48.072;7.800;2024-01-11T02:14:09;-5.20;99.90
2663;DHT22;49701;48.072;7.800;2024-01-11T02:16:35;-5.30;99.90
2663;DHT22;49701;48.072;7.800;2024-01-11T02:19:01;-5.30;99.90
2663;DHT22;49701;48.072;7.800;2024-01-11T02:21:26;-5.30;99.90
2663;DHT22;49701;48.072;7.800;2024-01-11T02:24:05;-5.40;99.90
2663;DHT22;49701;48.072;7.800;2024-01-11T02:26:31;-5.40;99.90
2663;DHT22;49701;48.072;7.800;2024-01-11T02:28:57;-5.40;99.90
2663;DHT22;49701;48.072;7.800;2024-01-11T02:31:22;-5.40;99.90
2663;DHT22;49701;48.072;7.800;2024-01-11T02:33:48;-5.40;99.90
2663;DHT22;49701;48.072;7.800;2024-01-11T02:36:14;-5.50;99.90
2663;DHT22;49701;48.072;7.800;2024-01-11T02:38:40;-5.50;99.90
2663;DHT22;49701;48.072;7.800;2024-01-11T02:41:07;-5.50;99.90
2663;DHT22;49701;48.072;7.800;2024-01-11T02:43:32;-5.50;99.90
2663;DHT22;49701;48.072;7.800;2024-01-11T02:45:58;-5.50;99.90
2663;DHT22;49701;48.072;7.800;2024-01-11T02:48:28;-5.60;99.90
2663;DHT22;49701;48.072;7.800;2024-01-11T02:50:53;-5.60;99.90
2663;DHT22;49701;48.072;7.800;2024-01-11T02:53:19;-5.60;99.90
2663;DHT22;49701;48.072;7.800;2024-01-11T02:55:44;-5.60;99.90
2663;DHT22;49701;48.072;7.800;2024-01-11T02:58:10;-5.70;99.90
2663;DHT22;49701;48.072;7.800;2024-01-11T03:00:36;-5.70;99.90
2663;DHT22;49701;48.072;7.800;2024-01-11T03:03:01;-5.70;99.90
2663;DHT22;49701;48.072;7.800;2024-01-11T03:05:27;-5.80;99.90
2663;DHT22;49701;48.072;7.800;2024-01-11T03:07:53;-5.80;99.90
2663;DHT22;49701;48.072;7.800;2024-01-11T03:10:18;-5.80;99.90
2663;DHT22;49701;48.072;7.800;2024-01-11T03:12:44;-5.80;99.90
2663;DHT22;49701;48.072;7.800;2024-01-11T03:15:09;-5.80;99.90
2663;DHT22;49701;48.072;7.800;2024-01-11T03:17:35;-5.90;99.90
2663;DHT22;49701;48.072;7.800;2024-01-11T03:20:01;-5.90;99.90
2663;DHT22;49701;48.072;7.800;2024-01-11T03:22:28;-5.90;99.90
2663;DHT22;49701;48.072;7.800;2024-01-11T03:24:54;-5.90;99.90
2663;DHT22;49701;48.072;7.800;2024-01-11T03:27:19;-5.90;99.90
2663;DHT22;49701;48.072;7.800;2024-01-11T03:29:45;-5.90;99.90
2663;DHT22;49701;48.072;7.800;2024-01-11T03:32:11;-5.90;99.90
2663;DHT22;49701;48.072;7.800;2024-01-11T03:34:39;-5.90;99.90
2663;DHT22;49701;48.072;7.800;2024-01-11T03:37:04;-5.80;99.90
2663;DHT22;49701;48.072;7.800;2024-01-11T03:39:30;-5.90;99.90
2663;DHT22;49701;48.072;7.800;2024-01-11T03:41:56;-5.80;99.90
2663;DHT22;49701;48.072;7.800;2024-01-11T03:44:22;-5.80;99.90
2663;DHT22;49701;48.072;7.800;2024-01-11T03:46:47;-5.80;99.90
2663;DHT22;49701;48.072;7.800;2024-01-11T03:49:13;-5.90;99.90
2663;DHT22;49701;48.072;7.800;2024-01-11T03:51:38;-5.90;99.90
2663;DHT22;49701;48.072;7.800;2024-01-11T03:54:04;-5.90;99.90
2663;DHT22;49701;48.072;7.800;2024-01-11T03:56:30;-5.80;99.90
2663;DHT22;49701;48.072;7.800;2024-01-11T03:58:55;-5.80;99.90
2663;DHT22;49701;48.072;7.800;2024-01-11T04:01:21;-5.90;99.90
2663;DHT22;49701;48.072;7.800;2024-01-11T04:03:47;-5.80;99.90
2663;DHT22;49701;48.072;7.800;2024-01-11T04:06:22;-5.90;99.90
2663;DHT22;49701;48.072;7.800;2024-01-11T04:08:48;-5.90;99.90
2663;DHT22;49701;48.072;7.800;2024-01-11T04:11:14;-5.90;99.90
2663;DHT22;49701;48.072;7.800;2024-01-11T04:13:39;-5.90;99.90
2663;DHT22;49701;48.072;7.800;2024-01-11T04:16:05;-5.90;99.90
2663;DHT22;49701;48.072;7.800;2024-01-11T04:18:31;-5.90;99.90
2663;DHT22;49701;48.072;7.800;2024-01-11T04:20:57;-5.90;99.90
2663;DHT22;49701;48.072;7.800;2024-01-11T04:23:23;-5.90;99.90
2663;DHT22;49701;48.072;7.800;2024-01-11T04:25:48;-5.90;99.90
2663;DHT22;49701;48.072;7.800;2024-01-11T04:28:15;-6.00;99.90
2663;DHT22;49701;48.072;7.800;2024-01-11T04:30:41;-5.90;99.90
2663;DHT22;49701;48.072;7.800;2024-01-11T04:33:07;-5.90;99.90
2663;DHT22;49701;48.072;7.800;2024-01-11T04:35:32;-5.90;99.90
2663;DHT22;49701;48.072;7.800;2024-01-11T04:37:58;-5.90;99.90
2663;DHT22;49701;48.072;7.800;2024-01-11T04:40:23;-5.90;99.90
2663;DHT22;49701;48.072;7.800;2024-01-11T04:42:49;-6.00;99.90
2663;DHT22;49701;48.072;7.800;2024-01-11T04:45:15;-6.00;99.90
2663;DHT22;49701;48.072;7.800;2024-01-11T04:47:40;-6.00;99.90
2663;DHT22;49701;48.072;7.800;2024-01-11T04:50:06;-6.00;99.90
2663;DHT22;49701;48.072;7.800;2024-01-11T04:52:32;-6.00;99.90
2663;DHT22;49701;48.072;7.800;2024-01-11T04:54:58;-6.00;99.90
2663;DHT22;49701;48.072;7.800;2024-01-11T04:57:23;-6.00;99.90
2663;DHT22;49701;48.072;7.800;2024-01-11T04:59:49;-6.00;99.90
2663;DHT22;49701;48.072;7.800;2024-01-11T05:02:14;-6.00;99.90
2663;DHT22;49701;48.072;7.800;2024-01-11T05:04:40;-6.00;99.90
2663;DHT22;49701;48.072;7.800;2024-01-11T05:07:06;-6.10;99.90
2663;DHT22;49701;48.072;7.800;2024-01-11T05:09:31;-6.10;99.90
2663;DHT22;49701;48.072;7.800;2024-01-11T05:11:57;-6.10;99.90
2663;DHT22;49701;48.072;7.800;2024-01-11T05:14:23;-6.10;99.90
2663;DHT22;49701;48.072;7.800;2024-01-11T05:16:48;-6.10;99.90
2663;DHT22;49701;48.072;7.800;2024-01-11T05:19:15;-6.10;99.90
2663;DHT22;49701;48.072;7.800;2024-01-11T05:21:41;-6.10;99.90
2663;DHT22;49701;48.072;7.800;2024-01-11T05:24:06;-6.10;99.90
2663;DHT22;49701;48.072;7.800;2024-01-11T05:26:32;-6.20;99.90
2663;DHT22;49701;48.072;7.800;2024-01-11T05:28:58;-6.10;99.90
2663;DHT22;49701;48.072;7.800;2024-01-11T05:31:23;-6.10;99.90
2663;DHT22;49701;48.072;7.800;2024-01-11T05:33:49;-6.10;99.90
2663;DHT22;49701;48.072;7.800;2024-01-11T05:36:14;-6.10;99.90
2663;DHT22;49701;48.072;7.800;2024-01-11T05:38:40;-6.20;99.90
2663;DHT22;49701;48.072;7.800;2024-01-11T05:41:06;-6.20;99.90
2663;DHT22;49701;48.072;7.800;2024-01-11T05:43:31;-6.20;99.90
2663;DHT22;49701;48.072;7.800;2024-01-11T05:45:57;-6.20;99.90
2663;DHT22;49701;48.072;7.800;2024-01-11T05:48:23;-6.20;99.90
2663;DHT22;49701;48.072;7.800;2024-01-11T05:50:49;-6.20;99.90
2663;DHT22;49701;48.072;7.800;2024-01-11T05:53:15;-6.20;99.90
2663;DHT22;49701;48.072;7.800;2024-01-11T05:55:42;-6.20;99.90
2663;DHT22;49701;48.072;7.800;2024-01-11T05:58:08;-6.20;99.90
2663;DHT22;49701;48.072;7.800;2024-01-11T06:00:33;-6.20;99.90
2663;DHT22;49701;48.072;7.800;2024-01-11T06:02:59;-6.20;99.90
2663;DHT22;49701;48.072;7.800;2024-01-11T06:05:25;-6.20;99.90
2663;DHT22;49701;48.072;7.800;2024-01-11T06:07:50;-6.20;99.90
2663;DHT22;49701;48.072;7.800;2024-01-11T06:10:16;-6.20;99.90
2663;DHT22;49701;48.072;7.800;2024-01-11T06:12:42;-6.20;99.90
2663;DHT22;49701;48.072;7.800;2024-01-11T06:15:08;-6.20;99.90
2663;DHT22;49701;48.072;7.800;2024-01-11T06:17:33;-6.20;99.90
2663;DHT22;49701;48.072;7.800;2024-01-11T06:19:59;-6.20;99.90
2663;DHT22;49701;48.072;7.800;2024-01-11T06:22:24;-6.30;99.90
2663;DHT22;49701;48.072;7.800;2024-01-11T06:24:50;-6.30;99.90
2663;DHT22;49701;48.072;7.800;2024-01-11T06:27:15;-6.30;99.90
2663;DHT22;49701;48.072;7.800;2024-01-11T06:29:41;-6.30;99.90
2663;DHT22;49701;48.072;7.800;2024-01-11T06:32:06;-6.30;99.90
2663;DHT22;49701;48.072;7.800;2024-01-11T06:34:32;-6.30;99.90
2663;DHT22;49701;48.072;7.800;2024-01-11T06:36:59;-6.30;99.90
2663;DHT22;49701;48.072;7.800;2024-01-11T06:39:25;-6.40;99.90
2663;DHT22;49701;48.072;7.800;2024-01-11T06:41:50;-6.40;99.90
2663;DHT22;49701;48.072;7.800;2024-01-11T06:44:16;-6.40;99.90
2663;DHT22;49701;48.072;7.800;2024-01-11T06:46:42;-6.40;99.90
2663;DHT22;49701;48.072;7.800;2024-01-11T06:49:09;-6.40;99.90
2663;DHT22;49701;48.072;7.800;2024-01-11T06:51:34;-6.40;99.90
2663;DHT22;49701;48.072;7.800;2024-01-11T06:54:00;-6.40;99.90
2663;DHT22;49701;48.072;7.800;2024-01-11T06:56:27;-6.40;99.90
2663;DHT22;49701;48.072;7.800;2024-01-11T06:58:52;-6.40;99.90
2663;DHT22;49701;48.072;7.800;2024-01-11T07:01:19;-6.40;99.90
2663;DHT22;49701;48.072;7.800;2024-01-11T07:03:45;-6.40;99.90
2663;DHT22;49701;48.072;7.800;2024-01-11T07:06:10;-6.40;99.90
2663;DHT22;49701;48.072;7.800;2024-01-11T07:08:36;-6.50;99.90
2663;DHT22;49701;48.072;7.800;2024-01-11T07:11:02;-6.50;99.90
2663;DHT22;49701;48.072;7.800;2024-01-11T07:13:28;-6.50;99.90
2663;DHT22;49701;48.072;7.800;2024-01-11T07:15:54;-6.50;99.90
2663;DHT22;49701;48.072;7.800;2024-01-11T07:18:21;-6.40;99.90
2663;DHT22;49701;48.072;7.800;2024-01-11T07:20:46;-6.40;99.90
2663;DHT22;49701;48.072;7.800;2024-01-11T07:23:13;-6.40;99.90
2663;DHT22;49701;48.072;7.800;2024-01-11T07:25:39;-6.40;99.90
2663;DHT22;49701;48.072;7.800;2024-01-11T07:28:05;-6.40;99.90
2663;DHT22;49701;48.072;7.800;2024-01-11T07:30:30;-6.40;99.90
2663;DHT22;49701;48.072;7.800;2024-01-11T07:32:56;-6.30;99.90
2663;DHT22;49701;48.072;7.800;2024-01-11T07:35:21;-6.30;99.90
2663;DHT22;49701;48.072;7.800;2024-01-11T07:37:47;-6.30;99.90
2663;DHT22;49701;48.072;7.800;2024-01-11T07:40:12;-6.30;99.90
2663;DHT22;49701;48.072;7.800;2024-01-11T07:42:39;-6.30;99.90
2663;DHT22;49701;48.072;7.800;2024-01-11T07:45:05;-6.30;99.90
2663;DHT22;49701;48.072;7.800;2024-01-11T07:47:31;-6.20;99.90
2663;DHT22;49701;48.072;7.800;2024-01-11T07:49:57;-6.20;99.90
2663;DHT22;49701;48.072;7.800;2024-01-11T07:52:22;-6.10;99.90
2663;DHT22;49701;48.072;7.800;2024-01-11T07:54:48;-6.10;99.90
2663;DHT22;49701;48.072;7.800;2024-01-11T07:57:13;-6.00;99.90
2663;DHT22;49701;48.072;7.800;2024-01-11T07:59:39;-6.00;99.90
2663;DHT22;49701;48.072;7.800;2024-01-11T08:02:04;-6.00;99.90
2663;DHT22;49701;48.072;7.800;2024-01-11T08:04:31;-6.00;99.90
2663;DHT22;49701;48.072;7.800;2024-01-11T08:06:56;-5.90;99.90
2663;DHT22;49701;48.072;7.800;2024-01-11T08:09:27;-5.80;99.90
2663;DHT22;49701;48.072;7.800;2024-01-11T08:11:53;-5.70;99.90
2663;DHT22;49701;48.072;7.800;2024-01-11T08:14:20;-5.50;99.90
2663;DHT22;49701;48.072;7.800;2024-01-11T08:16:45;-5.30;99.90
2663;DHT22;49701;48.072;7.800;2024-01-11T08:19:11;-5.10;99.90
2663;DHT22;49701;48.072;7.800;2024-01-11T08:21:39;-4.80;99.90
2663;DHT22;49701;48.072;7.800;2024-01-11T08:24:04;-4.60;99.90
2663;DHT22;49701;48.072;7.800;2024-01-11T08:26:30;-4.30;99.90
2663;DHT22;49701;48.072;7.800;2024-01-11T08:28:56;-4.10;99.90
2663;DHT22;49701;48.072;7.800;2024-01-11T08:31:21;-3.80;99.90
2663;DHT22;49701;48.072;7.800;2024-01-11T08:33:48;-3.50;99.90
2663;DHT22;49701;48.072;7.800;2024-01-11T08:36:13;-3.20;99.90
2663;DHT22;49701;48.072;7.800;2024-01-11T08:38:39;-3.00;99.90
2663;DHT22;49701;48.072;7.800;2024-01-11T08:41:06;-2.70;99.90
2663;DHT22;49701;48.072;7.800;2024-01-11T08:43:32;-2.50;99.90
2663;DHT22;49701;48.072;7.800;2024-01-11T08:45:58;-2.30;99.90
2663;DHT22;49701;48.072;7.800;2024-01-11T08:48:23;-2.10;99.90
2663;DHT22;49701;48.072;7.800;2024-01-11T08:50:49;-1.90;99.90
2663;DHT22;49701;48.072;7.800;2024-01-11T08:53:14;-1.70;99.90
2663;DHT22;49701;48.072;7.800;2024-01-11T08:55:41;-1.50;99.90
2663;DHT22;49701;48.072;7.800;2024-01-11T08:58:07;-1.30;99.90
2663;DHT22;49701;48.072;7.800;2024-01-11T09:00:44;-1.00;99.90
2663;DHT22;49701;48.072;7.800;2024-01-11T09:03:10;-0.80;99.90
2663;DHT22;49701;48.072;7.800;2024-01-11T09:05:37;-0.70;99.90
2663;DHT22;49701;48.072;7.800;2024-01-11T09:08:02;-0.40;99.90
2663;DHT22;49701;48.072;7.800;2024-01-11T09:10:32;-0.20;99.90
2663;DHT22;49701;48.072;7.800;2024-01-11T09:12:57;0.00;99.90
2663;DHT22;49701;48.072;7.800;2024-01-11T09:15:23;0.20;99.90
2663;DHT22;49701;48.072;7.800;2024-01-11T09:17:48;0.30;99.90
2663;DHT22;49701;48.072;7.800;2024-01-11T09:20:14;0.30;99.90
2663;DHT22;49701;48.072;7.800;2024-01-11T09:22:41;0.30;99.90
2663;DHT22;49701;48.072;7.800;2024-01-11T09:25:07;0.40;99.90
2663;DHT22;49701;48.072;7.800;2024-01-11T09:27:33;0.60;99.90
2663;DHT22;49701;48.072;7.800;2024-01-11T09:29:59;0.70;99.90
2663;DHT22;49701;48.072;7.800;2024-01-11T09:32:24;0.90;99.90
2663;DHT22;49701;48.072;7.800;2024-01-11T09:34:50;1.20;99.90
2663;DHT22;49701;48.072;7.800;2024-01-11T09:37:16;1.50;99.90
2663;DHT22;49701;48.072;7.800;2024-01-11T09:39:41;1.70;99.90
2663;DHT22;49701;48.072;7.800;2024-01-11T09:42:08;2.00;99.90
2663;DHT22;49701;48.072;7.800;2024-01-11T09:44:37;2.10;99.90
2663;DHT22;49701;48.072;7.800;2024-01-11T09:47:04;2.20;99.90
2663;DHT22;49701;48.072;7.800;2024-01-11T09:49:31;2.30;99.90
2663;DHT22;49701;48.072;7.800;2024-01-11T09:51:58;2.60;99.90
2663;DHT22;49701;48.072;7.800;2024-01-11T09:54:24;2.70;99.90
2663;DHT22;49701;48.072;7.800;2024-01-11T09:56:50;3.00;99.90
2663;DHT22;49701;48.072;7.800;2024-01-11T09:59:18;3.30;99.90
2663;DHT22;49701;48.072;7.800;2024-01-11T10:01:45;3.60;99.90
2663;DHT22;49701;48.072;7.800;2024-01-11T10:04:11;3.60;99.90
2663;DHT22;49701;48.072;7.800;2024-01-11T10:06:38;3.50;99.90
2663;DHT22;49701;48.072;7.800;2024-01-11T10:09:03;3.20;99.90
2663;DHT22;49701;48.072;7.800;2024-01-11T10:11:29;2.90;99.90
2663;DHT22;49701;48.072;7.800;2024-01-11T10:13:58;3.10;99.90
2663;DHT22;49701;48.072;7.800;2024-01-11T10:16:24;3.20;99.90
2663;DHT22;49701;48.072;7.800;2024-01-11T10:18:53;3.20;99.90
2663;DHT22;49701;48.072;7.800;2024-01-11T10:21:19;3.00;99.90
2663;DHT22;49701;48.072;7.800;2024-01-11T10:23:44;2.70;99.90
2663;DHT22;49701;48.072;7.800;2024-01-11T10:26:10;2.70;99.90
2663;DHT22;49701;48.072;7.800;2024-01-11T10:28:36;2.90;99.90
2663;DHT22;49701;48.072;7.800;2024-01-11T10:31:05;3.30;99.90
2663;DHT22;49701;48.072;7.800;2024-01-11T10:33:34;3.80;99.90
2663;DHT22;49701;48.072;7.800;2024-01-11T10:36:01;4.30;99.90
2663;DHT22;49701;48.072;7.800;2024-01-11T10:38:26;4.60;99.90
2663;DHT22;49701;48.072;7.800;2024-01-11T10:40:55;4.60;99.90
2663;DHT22;49701;48.072;7.800;2024-01-11T10:43:21;4.60;99.90
2663;DHT22;49701;48.072;7.800;2024-01-11T10:45:50;4.70;99.90
2663;DHT22;49701;48.072;7.800;2024-01-11T10:48:20;4.60;99.90
2663;DHT22;49701;48.072;7.800;2024-01-11T10:50:46;4.40;99.90
2663;DHT22;49701;48.072;7.800;2024-01-11T10:53:22;4.00;99.90
2663;DHT22;49701;48.072;7.800;2024-01-11T10:55:50;3.80;99.90
2663;DHT22;49701;48.072;7.800;2024-01-11T10:58:16;3.90;99.90
2663;DHT22;49701;48.072;7.800;2024-01-11T11:00:42;4.20;99.90
2663;DHT22;49701;48.072;7.800;2024-01-11T11:03:07;4.50;99.90
2663;DHT22;49701;48.072;7.800;2024-01-11T11:05:34;5.00;99.90
2663;DHT22;49701;48.072;7.800;2024-01-11T11:08:03;5.60;99.90
2663;DHT22;49701;48.072;7.800;2024-01-11T11:10:30;6.10;99.90
2663;DHT22;49701;48.072;7.800;2024-01-11T11:12:55;6.60;99.90
2663;DHT22;49701;48.072;7.800;2024-01-11T11:15:26;6.90;99.90
2663;DHT22;49701;48.072;7.800;2024-01-11T11:17:55;7.10;99.90
2663;DHT22;49701;48.072;7.800;2024-01-11T11:20:21;7.40;99.90
2663;DHT22;49701;48.072;7.800;2024-01-11T11:25:31;7.60;99.90
2663;DHT22;49701;48.072;7.800;2024-01-11T11:27:57;7.70;99.90
2663;DHT22;49701;48.072;7.800;2024-01-11T11:30:23;7.40;99.90
2663;DHT22;49701;48.072;7.800;2024-01-11T11:32:49;6.40;99.90
2663;DHT22;49701;48.072;7.800;2024-01-11T11:35:15;6.20;99.90
2663;DHT22;49701;48.072;7.800;2024-01-11T11:37:40;6.10;99.90
2663;DHT22;49701;48.072;7.800;2024-01-11T11:40:08;6.20;99.90
2663;DHT22;49701;48.072;7.800;2024-01-11T11:42:34;6.30;99.90
2663;DHT22;49701;48.072;7.800;2024-01-11T11:45:00;6.40;99.90
2663;DHT22;49701;48.072;7.800;2024-01-11T11:47:33;6.50;99.90
2663;DHT22;49701;48.072;7.800;2024-01-11T11:50:06;6.70;99.90
2663;DHT22;49701;48.072;7.800;2024-01-11T11:52:33;6.80;99.90
2663;DHT22;49701;48.072;7.800;2024-01-11T11:54:59;7.10;99.90
2663;DHT22;49701;48.072;7.800;2024-01-11T11:57:26;7.30;99.90
2663;DHT22;49701;48.072;7.800;2024-01-11T11:59:56;7.40;99.90
2663;DHT22;49701;48.072;7.800;2024-01-11T12:02:26;7.30;99.90
2663;DHT22;49701;48.072;7.800;2024-01-11T12:04:52;7.30;99.90
2663;DHT22;49701;48.072;7.800;2024-01-11T12:07:19;7.10;99.90
2663;DHT22;49701;48.072;7.800;2024-01-11T12:09:45;7.00;99.90
2663;DHT22;49701;48.072;7.800;2024-01-11T12:12:11;6.70;99.90
2663;DHT22;49701;48.072;7.800;2024-01-11T12:14:38;6.50;99.90
2663;DHT22;49701;48.072;7.800;2024-01-11T12:17:03;6.30;99.90
2663;DHT22;49701;48.072;7.800;2024-01-11T12:19:29;6.20;99.90
2663;DHT22;49701;48.072;7.800;2024-01-11T12:21:54;6.30;99.90
2663;DHT22;49701;48.072;7.800;2024-01-11T12:24:20;6.70;99.90
2663;DHT22;49701;48.072;7.800;2024-01-11T12:26:49;6.70;99.90
2663;DHT22;49701;48.072;7.800;2024-01-11T12:29:18;6.70;99.90
2663;DHT22;49701;48.072;7.800;2024-01-11T12:31:44;6.90;99.90
2663;DHT22;49701;48.072;7.800;2024-01-11T12:34:11;7.00;99.90
2663;DHT22;49701;48.072;7.800;2024-01-11T12:36:37;7.20;99.90
2663;DHT22;49701;48.072;7.800;2024-01-11T12:39:03;7.10;99.90
2663;DHT22;49701;48.072;7.800;2024-01-11T12:41:34;7.10;99.90
2663;DHT22;49701;48.072;7.800;2024-01-11T12:44:00;7.20;99.90
2663;DHT22;49701;48.072;7.800;2024-01-11T12:46:26;7.20;99.90
2663;DHT22;49701;48.072;7.800;2024-01-11T12:48:52;7.50;99.90
2663;DHT22;49701;48.072;7.800;2024-01-11T12:51:18;7.80;99.90
2663;DHT22;49701;48.072;7.800;2024-01-11T12:53:47;8.00;99.90
2663;DHT22;49701;48.072;7.800;2024-01-11T12:56:14;8.20;99.90
2663;DHT22;49701;48.072;7.800;2024-01-11T12:58:40;8.30;99.90
2663;DHT22;49701;48.072;7.800;2024-01-11T13:01:06;8.40;99.90
2663;DHT22;49701;48.072;7.800;2024-01-11T13:03:37;8.50;99.90
2663;DHT22;49701;48.072;7.800;2024-01-11T13:06:03;8.20;99.90
2663;DHT22;49701;48.072;7.800;2024-01-11T13:08:31;8.20;99.90
2663;DHT22;49701;48.072;7.800;2024-01-11T13:10:57;8.20;99.90
2663;DHT22;49701;48.072;7.800;2024-01-11T13:13:23;8.10;99.90
2663;DHT22;49701;48.072;7.800;2024-01-11T13:15:48;8.20;99.90
2663;DHT22;49701;48.072;7.800;2024-01-11T13:18:14;8.40;99.90
2663;DHT22;49701;48.072;7.800;2024-01-11T13:20:40;8.60;99.90
2663;DHT22;49701;48.072;7.800;2024-01-11T13:23:15;8.80;99.90
2663;DHT22;49701;48.072;7.800;2024-01-11T13:25:41;8.80;99.90
2663;DHT22;49701;48.072;7.800;2024-01-11T13:28:07;8.70;99.90
2663;DHT22;49701;48.072;7.800;2024-01-11T13:30:33;8.40;99.90
2663;DHT22;49701;48.072;7.800;2024-01-11T13:32:59;8.10;99.90
2663;DHT22;49701;48.072;7.800;2024-01-11T13:35:24;8.50;99.90
2663;DHT22;49701;48.072;7.800;2024-01-11T13:37:50;8.90;99.90
2663;DHT22;49701;48.072;7.800;2024-01-11T13:40:15;9.10;99.90
2663;DHT22;49701;48.072;7.800;2024-01-11T13:42:41;9.10;99.90
2663;DHT22;49701;48.072;7.800;2024-01-11T13:45:07;9.40;99.90
2663;DHT22;49701;48.072;7.800;2024-01-11T13:47:34;9.80;99.90
2663;DHT22;49701;48.072;7.800;2024-01-11T13:50:00;10.00;99.90
2663;DHT22;49701;48.072;7.800;2024-01-11T13:52:26;10.10;99.90
2663;DHT22;49701;48.072;7.800;2024-01-11T13:54:52;10.20;99.90
2663;DHT22;49701;48.072;7.800;2024-01-11T13:57:17;9.90;99.90
2663;DHT22;49701;48.072;7.800;2024-01-11T13:59:43;10.00;99.90
2663;DHT22;49701;48.072;7.800;2024-01-11T14:02:08;10.20;99.90
2663;DHT22;49701;48.072;7.800;2024-01-11T14:04:34;10.30;99.90
2663;DHT22;49701;48.072;7.800;2024-01-11T14:07:00;10.50;99.90
2663;DHT22;49701;48.072;7.800;2024-01-11T14:09:29;10.30;99.70
2663;DHT22;49701;48.072;7.800;2024-01-11T14:12:02;9.80;99.90
2663;DHT22;49701;48.072;7.800;2024-01-11T14:14:29;9.10;99.90
2663;DHT22;49701;48.072;7.800;2024-01-11T14:16:55;8.90;99.90
2663;DHT22;49701;48.072;7.800;2024-01-11T14:19:20;9.00;99.90
2663;DHT22;49701;48.072;7.800;2024-01-11T14:21:46;9.20;99.90
2663;DHT22;49701;48.072;7.800;2024-01-11T14:24:11;9.40;99.90
2663;DHT22;49701;48.072;7.800;2024-01-11T14:26:37;9.10;99.90
2663;DHT22;49701;48.072;7.800;2024-01-11T14:29:03;8.80;99.90
2663;DHT22;49701;48.072;7.800;2024-01-11T14:31:29;8.10;99.90
2663;DHT22;49701;48.072;7.800;2024-01-11T14:33:54;7.70;99.90
2663;DHT22;49701;48.072;7.800;2024-01-11T14:36:20;7.30;99.90
2663;DHT22;49701;48.072;7.800;2024-01-11T14:38:46;6.80;99.90
2663;DHT22;49701;48.072;7.800;2024-01-11T14:41:11;6.20;99.90
2663;DHT22;49701;48.072;7.800;2024-01-11T14:43:37;5.60;99.90
2663;DHT22;49701;48.072;7.800;2024-01-11T14:46:02;5.10;99.90
2663;DHT22;49701;48.072;7.800;2024-01-11T14:48:28;4.70;99.90
2663;DHT22;49701;48.072;7.800;2024-01-11T14:50:56;4.70;99.90
2663;DHT22;49701;48.072;7.800;2024-01-11T14:53:22;4.90;99.90
2663;DHT22;49701;48.072;7.800;2024-01-11T14:55:47;5.20;99.90
2663;DHT22;49701;48.072;7.800;2024-01-11T14:58:13;5.30;99.90
2663;DHT22;49701;48.072;7.800;2024-01-11T15:00:39;5.40;99.90
2663;DHT22;49701;48.072;7.800;2024-01-11T15:03:04;5.10;99.90
2663;DHT22;49701;48.072;7.800;2024-01-11T15:05:30;4.90;99.90
2663;DHT22;49701;48.072;7.800;2024-01-11T15:07:57;4.70;99.90
2663;DHT22;49701;48.072;7.800;2024-01-11T15:10:22;4.40;99.90
2663;DHT22;49701;48.072;7.800;2024-01-11T15:12:48;4.10;99.90
2663;DHT22;49701;48.072;7.800;2024-01-11T15:15:13;3.90;99.90
2663;DHT22;49701;48.072;7.800;2024-01-11T15:17:39;3.70;99.90
2663;DHT22;49701;48.072;7.800;2024-01-11T15:20:05;3.50;99.90
2663;DHT22;49701;48.072;7.800;2024-01-11T15:22:32;3.20;99.90
2663;DHT22;49701;48.072;7.800;2024-01-11T15:24:57;2.90;99.90
2663;DHT22;49701;48.072;7.800;2024-01-11T15:27:23;2.60;99.90
2663;DHT22;49701;48.072;7.800;2024-01-11T15:29:48;2.50;99.90
2663;DHT22;49701;48.072;7.800;2024-01-11T15:32:16;2.30;99.90
2663;DHT22;49701;48.072;7.800;2024-01-11T15:34:41;2.30;99.90
2663;DHT22;49701;48.072;7.800;2024-01-11T15:37:07;2.20;99.90
2663;DHT22;49701;48.072;7.800;2024-01-11T15:39:33;2.10;99.90
2663;DHT22;49701;48.072;7.800;2024-01-11T15:41:59;2.00;99.90
2663;DHT22;49701;48.072;7.800;2024-01-11T15:44:28;1.90;99.90
2663;DHT22;49701;48.072;7.800;2024-01-11T15:46:54;1.80;99.90